Time;durP1;ratioP1;P1;durP2;ratioP2;P2;SDS_P1;SDS_P2;PMS_P1;PMS_P2;Temp;Humidity;BMP_temperature;BMP_pressure;BME280_temperature;BME280_humidity;BME280_pressure;Samples;Min_cycle;Max_cycle;Signal;HPM_P1;HPM_P2
2022/09/29 00:01:32;;;;;;;;;;;10.00;86.20;;;;;;5035561;28;19940;-71
2022/09/29 00:03:58;;;;;;;;;;;10.00;86.20;;;;;;5033467;28;19932;-70
2022/09/29 00:06:25;;;;;;;;;;;10.00;86.40;;;;;;5041525;28;19932;-70
2022/09/29 00:08:59;;;;;;;;;;;10.00;86.40;;;;;;5034160;28;20405;-72
2022/09/29 00:11:26;;;;;;;;;;;10.00;86.50;;;;;;5028343;28;20021;-71
2022/09/29 00:13:54;;;;;;;;;;;10.00;86.40;;;;;;5040290;28;19929;-71
2022/09/29 00:16:21;;;;;;;;;;;10.00;86.40;;;;;;5038936;28;19975;-69
2022/09/29 00:18:47;;;;;;;;;;;9.90;86.40;;;;;;5044789;28;19928;-71
2022/09/29 00:21:15;;;;;;;;;;;9.90;86.40;;;;;;5011996;28;19931;-69
2022/09/29 00:23:44;;;;;;;;;;;9.90;86.30;;;;;;5037633;28;19925;-71
2022/09/29 00:26:14;;;;;;;;;;;9.90;86.40;;;;;;5033262;28;19925;-71
2022/09/29 00:28:41;;;;;;;;;;;9.90;86.40;;;;;;5039752;28;19929;-69
2022/09/29 00:31:10;;;;;;;;;;;9.80;86.30;;;;;;5035344;28;20070;-71
2022/09/29 00:33:38;;;;;;;;;;;9.80;86.20;;;;;;5044668;28;19932;-69
2022/09/29 00:36:08;;;;;;;;;;;9.70;86.20;;;;;;5016065;28;20023;-70
2022/09/29 00:38:35;;;;;;;;;;;9.70;86.10;;;;;;5043271;28;19924;-71
2022/09/29 00:41:03;;;;;;;;;;;9.70;86.10;;;;;;5047771;28;19979;-71
2022/09/29 00:43:49;;;;;;;;;;;9.80;86.00;;;;;;5044469;28;20295;-71
2022/09/29 00:46:17;;;;;;;;;;;9.70;86.10;;;;;;5049214;28;19925;-71
2022/09/29 00:48:46;;;;;;;;;;;9.70;86.10;;;;;;5048719;28;19979;-71
2022/09/29 00:51:13;;;;;;;;;;;9.70;86.00;;;;;;5050169;28;20006;-69
2022/09/29 00:53:40;;;;;;;;;;;9.80;86.00;;;;;;5046515;28;20023;-71
2022/09/29 00:56:08;;;;;;;;;;;9.70;86.10;;;;;;5043380;28;20011;-71
2022/09/29 00:58:38;;;;;;;;;;;9.70;86.10;;;;;;5046368;28;19928;-71
2022/09/29 01:01:06;;;;;;;;;;;9.70;86.10;;;;;;5039909;28;19995;-70
2022/09/29 01:03:36;;;;;;;;;;;9.70;86.20;;;;;;5036434;28;19929;-70
2022/09/29 01:06:05;;;;;;;;;;;9.70;86.20;;;;;;5025984;28;19933;-70
2022/09/29 01:08:36;;;;;;;;;;;9.70;86.20;;;;;;5037780;28;20390;-70
2022/09/29 01:11:03;;;;;;;;;;;9.70;86.20;;;;;;5038235;28;19928;-70
2022/09/29 01:13:31;;;;;;;;;;;9.70;86.10;;;;;;5046995;28;19929;-71
2022/09/29 01:15:58;;;;;;;;;;;9.70;86.00;;;;;;5041127;28;19983;-71
2022/09/29 01:18:26;;;;;;;;;;;9.70;86.00;;;;;;5047030;28;19933;-71
2022/09/29 01:20:56;;;;;;;;;;;9.60;86.10;;;;;;5045032;28;19929;-70
2022/09/29 01:23:41;;;;;;;;;;;9.60;86.20;;;;;;5026573;28;19989;-72
2022/09/29 01:26:15;;;;;;;;;;;9.60;86.20;;;;;;5024889;28;19929;-72
2022/09/29 01:28:52;;;;;;;;;;;9.60;86.10;;;;;;5023032;28;20450;-70
2022/09/29 01:31:26;;;;;;;;;;;9.60;86.10;;;;;;5025372;28;19933;-71
2022/09/29 01:33:57;;;;;;;;;;;9.60;86.10;;;;;;5012913;28;19925;-71
2022/09/29 01:36:30;;;;;;;;;;;9.60;86.10;;;;;;5021049;28;19929;-71
2022/09/29 01:39:02;;;;;;;;;;;9.60;86.20;;;;;;5043073;28;19924;-70
2022/09/29 01:41:34;;;;;;;;;;;9.50;86.30;;;;;;5040725;28;19932;-71
2022/09/29 01:44:04;;;;;;;;;;;9.50;86.20;;;;;;5037588;28;19929;-71
2022/09/29 01:46:33;;;;;;;;;;;9.50;86.30;;;;;;5046683;28;19967;-71
2022/09/29 01:49:02;;;;;;;;;;;9.50;86.40;;;;;;5038642;28;19933;-71
2022/09/29 01:51:38;;;;;;;;;;;9.50;86.50;;;;;;5044079;28;19978;-71
2022/09/29 01:54:09;;;;;;;;;;;9.50;86.40;;;;;;5047038;28;19967;-71
2022/09/29 01:56:38;;;;;;;;;;;9.50;86.40;;;;;;5048369;28;19929;-71
2022/09/29 01:59:06;;;;;;;;;;;9.50;86.30;;;;;;5047798;28;19932;-70
2022/09/29 02:01:38;;;;;;;;;;;9.60;86.20;;;;;;5042041;28;19929;-71
2022/09/29 02:04:08;;;;;;;;;;;9.60;86.00;;;;;;5035675;28;19924;-71
2022/09/29 02:06:37;;;;;;;;;;;9.60;86.00;;;;;;5048618;28;19928;-69
2022/09/29 02:09:04;;;;;;;;;;;9.50;86.00;;;;;;5047378;28;20376;-70
2022/09/29 02:11:32;;;;;;;;;;;9.50;86.10;;;;;;5036183;28;20290;-72
2022/09/29 02:14:01;;;;;;;;;;;9.50;86.10;;;;;;5045831;28;19940;-71
2022/09/29 02:16:29;;;;;;;;;;;9.50;86.20;;;;;;5045534;28;20405;-71
2022/09/29 02:19:00;;;;;;;;;;;9.40;86.20;;;;;;5042498;28;19940;-71
2022/09/29 02:21:28;;;;;;;;;;;9.50;86.20;;;;;;5035058;28;19925;-71
2022/09/29 02:23:55;;;;;;;;;;;9.40;86.30;;;;;;5047190;28;19928;-69
2022/09/29 02:26:22;;;;;;;;;;;9.50;86.10;;;;;;5038329;28;19971;-71
2022/09/29 02:28:51;;;;;;;;;;;9.40;86.10;;;;;;5041841;28;20390;-69
2022/09/29 02:31:18;;;;;;;;;;;9.30;86.10;;;;;;5041877;28;19983;-70
2022/09/29 02:33:46;;;;;;;;;;;9.30;86.10;;;;;;5047995;28;19929;-69
2022/09/29 02:36:19;;;;;;;;;;;9.40;86.00;;;;;;5045666;28;19928;-70
2022/09/29 02:38:51;;;;;;;;;;;9.30;85.90;;;;;;5040827;28;20006;-71
2022/09/29 02:41:28;;;;;;;;;;;9.30;86.00;;;;;;5043034;28;19975;-70
2022/09/29 02:44:08;;;;;;;;;;;9.20;86.00;;;;;;5036175;28;19925;-69
2022/09/29 02:46:42;;;;;;;;;;;9.20;86.20;;;;;;5026098;28;19925;-70
2022/09/29 02:49:17;;;;;;;;;;;9.30;86.10;;;;;;5025538;28;19988;-71
2022/09/29 02:51:47;;;;;;;;;;;9.20;86.10;;;;;;5029067;28;19929;-71
2022/09/29 02:54:19;;;;;;;;;;;9.20;86.10;;;;;;5022501;28;19929;-71
2022/09/29 02:56:49;;;;;;;;;;;9.30;86.10;;;;;;5028168;28;19925;-71
2022/09/29 02:59:19;;;;;;;;;;;9.30;86.00;;;;;;5022488;28;19936;-71
2022/09/29 03:01:47;;;;;;;;;;;9.30;86.10;;;;;;5021912;28;20299;-70
2022/09/29 03:04:14;;;;;;;;;;;9.30;86.10;;;;;;5021206;28;19948;-71
2022/09/29 03:06:41;;;;;;;;;;;9.30;86.10;;;;;;5018510;28;19937;-69
2022/09/29 03:09:11;;;;;;;;;;;9.30;86.20;;;;;;5008561;28;19929;-70
2022/09/29 03:11:38;;;;;;;;;;;9.30;86.20;;;;;;5014478;28;20679;-69
2022/09/29 03:14:09;;;;;;;;;;;9.40;86.20;;;;;;5026638;28;20398;-70
2022/09/29 03:16:36;;;;;;;;;;;9.30;86.30;;;;;;5022252;28;19925;-70
2022/09/29 03:19:04;;;;;;;;;;;9.40;86.40;;;;;;5027797;28;19933;-70
2022/09/29 03:21:32;;;;;;;;;;;9.30;86.40;;;;;;5040486;28;20400;-68
2022/09/29 03:24:01;;;;;;;;;;;9.30;86.50;;;;;;5046651;28;19936;-69
2022/09/29 03:26:29;;;;;;;;;;;9.40;86.50;;;;;;5046649;28;19932;-70
2022/09/29 03:28:56;;;;;;;;;;;9.40;86.40;;;;;;5046692;28;20349;-68
2022/09/29 03:31:23;;;;;;;;;;;9.40;86.50;;;;;;5027553;28;19929;-70
2022/09/29 03:33:49;;;;;;;;;;;9.30;86.40;;;;;;5045033;28;20390;-70
2022/09/29 03:36:16;;;;;;;;;;;9.30;86.60;;;;;;5041592;28;19932;-70
2022/09/29 03:38:45;;;;;;;;;;;9.30;86.60;;;;;;5047706;28;19987;-71
2022/09/29 03:41:12;;;;;;;;;;;9.30;86.60;;;;;;5034601;28;19935;-71
2022/09/29 03:43:42;;;;;;;;;;;9.30;86.60;;;;;;5040529;28;19925;-70
2022/09/29 03:46:08;;;;;;;;;;;9.20;86.60;;;;;;5013684;28;20349;-70
2022/09/29 03:48:35;;;;;;;;;;;9.20;86.70;;;;;;5043696;28;19928;-70
2022/09/29 03:51:02;;;;;;;;;;;9.30;86.70;;;;;;5044275;28;19947;-69
2022/09/29 03:53:29;;;;;;;;;;;9.30;86.60;;;;;;5042085;28;19979;-70
2022/09/29 03:55:56;;;;;;;;;;;9.30;86.60;;;;;;5041548;28;20406;-71
2022/09/29 03:58:22;;;;;;;;;;;9.30;86.50;;;;;;5026093;28;19925;-70
2022/09/29 04:00:50;;;;;;;;;;;9.30;86.50;;;;;;5022997;28;19988;-71
2022/09/29 04:03:17;;;;;;;;;;;9.30;86.50;;;;;;5039818;28;19933;-70
2022/09/29 04:05:45;;;;;;;;;;;9.30;86.50;;;;;;5045461;28;19929;-70
2022/09/29 04:08:12;;;;;;;;;;;9.30;86.50;;;;;;5029849;28;19935;-70
2022/09/29 04:10:41;;;;;;;;;;;9.40;86.30;;;;;;5034556;28;20382;-69
2022/09/29 04:13:09;;;;;;;;;;;9.40;86.10;;;;;;5043962;28;19935;-70
2022/09/29 04:15:36;;;;;;;;;;;9.30;86.00;;;;;;5043109;28;20029;-71
2022/09/29 04:18:05;;;;;;;;;;;9.40;86.00;;;;;;5041255;28;19929;-71
2022/09/29 04:20:34;;;;;;;;;;;9.40;85.90;;;;;;5042664;28;19931;-70
2022/09/29 04:23:00;;;;;;;;;;;9.40;85.80;;;;;;5043400;28;19929;-71
2022/09/29 04:25:27;;;;;;;;;;;9.40;85.80;;;;;;5041504;28;19982;-69
2022/09/29 04:27:54;;;;;;;;;;;9.40;85.70;;;;;;5039812;28;20378;-70
2022/09/29 04:30:21;;;;;;;;;;;9.40;85.70;;;;;;5043748;28;19933;-70
2022/09/29 04:32:47;;;;;;;;;;;9.30;85.70;;;;;;5040599;28;19935;-69
2022/09/29 04:35:16;;;;;;;;;;;9.30;85.70;;;;;;5040405;28;20050;-69
2022/09/29 04:37:42;;;;;;;;;;;9.30;85.70;;;;;;5041198;28;20413;-70
2022/09/29 04:40:10;;;;;;;;;;;9.20;85.70;;;;;;5039525;28;19929;-70
2022/09/29 04:42:37;;;;;;;;;;;9.20;85.60;;;;;;5042221;28;20024;-70
2022/09/29 04:45:04;;;;;;;;;;;9.20;85.50;;;;;;5023075;28;19933;-69
2022/09/29 04:47:31;;;;;;;;;;;9.10;85.60;;;;;;5031809;28;20302;-70
2022/09/29 04:49:57;;;;;;;;;;;9.10;85.70;;;;;;5037836;28;20329;-71
2022/09/29 04:52:25;;;;;;;;;;;9.10;85.70;;;;;;5039150;28;19936;-71
2022/09/29 04:54:52;;;;;;;;;;;9.10;85.70;;;;;;5040529;28;19987;-70
2022/09/29 04:57:19;;;;;;;;;;;9.10;85.80;;;;;;5039809;28;19925;-70
2022/09/29 04:59:50;;;;;;;;;;;9.10;85.90;;;;;;5032919;28;20389;-71
2022/09/29 05:02:17;;;;;;;;;;;9.10;85.90;;;;;;5021699;28;19932;-71
2022/09/29 05:04:44;;;;;;;;;;;9.10;86.00;;;;;;5039496;28;19925;-71
2022/09/29 05:07:11;;;;;;;;;;;9.20;86.00;;;;;;5034817;28;19924;-70
2022/09/29 05:09:40;;;;;;;;;;;9.10;85.90;;;;;;5039446;28;19937;-70
2022/09/29 05:12:09;;;;;;;;;;;9.10;86.00;;;;;;5035576;28;19924;-70
2022/09/29 05:14:36;;;;;;;;;;;9.10;86.00;;;;;;5039090;28;19936;-71
2022/09/29 05:17:02;;;;;;;;;;;9.10;86.10;;;;;;5039096;28;19933;-70
2022/09/29 05:19:30;;;;;;;;;;;9.20;86.10;;;;;;5032195;28;19933;-70
2022/09/29 05:21:57;;;;;;;;;;;9.20;86.10;;;;;;5046042;28;20019;-70
2022/09/29 05:24:24;;;;;;;;;;;9.20;86.20;;;;;;5042424;28;19987;-71
2022/09/29 05:26:52;;;;;;;;;;;9.20;86.20;;;;;;5037558;28;20383;-70
2022/09/29 05:29:20;;;;;;;;;;;9.20;86.30;;;;;;5042281;28;19925;-71
2022/09/29 05:31:46;;;;;;;;;;;9.20;86.20;;;;;;5040701;28;19968;-71
2022/09/29 05:34:14;;;;;;;;;;;9.20;86.20;;;;;;5045230;28;20014;-69
2022/09/29 05:36:40;;;;;;;;;;;9.20;86.20;;;;;;5037473;28;19929;-69
2022/09/29 05:39:07;;;;;;;;;;;9.20;86.20;;;;;;5025010;28;19928;-71
2022/09/29 05:41:34;;;;;;;;;;;9.20;86.30;;;;;;5021128;28;19940;-71
2022/09/29 05:44:04;;;;;;;;;;;9.20;86.20;;;;;;5018613;28;19933;-70
2022/09/29 05:46:30;;;;;;;;;;;9.20;86.10;;;;;;5018994;28;19929;-71
2022/09/29 05:48:57;;;;;;;;;;;9.20;86.10;;;;;;5019696;28;19975;-70
2022/09/29 05:51:25;;;;;;;;;;;9.20;86.00;;;;;;5019573;28;20003;-70
2022/09/29 05:53:52;;;;;;;;;;;9.20;86.00;;;;;;5019946;28;19929;-70
2022/09/29 05:56:21;;;;;;;;;;;9.20;86.10;;;;;;5022642;28;20354;-71
2022/09/29 05:58:50;;;;;;;;;;;9.20;86.20;;;;;;5019628;28;19973;-71
2022/09/29 06:01:19;;;;;;;;;;;9.20;86.20;;;;;;5013946;28;19934;-70
2022/09/29 06:03:46;;;;;;;;;;;9.20;86.20;;;;;;5019862;28;19925;-71
2022/09/29 06:06:14;;;;;;;;;;;9.30;86.10;;;;;;5023070;28;19936;-70
2022/09/29 06:08:44;;;;;;;;;;;9.30;86.00;;;;;;5023102;28;19939;-71
2022/09/29 06:11:11;;;;;;;;;;;9.30;86.00;;;;;;5026409;28;19939;-71
2022/09/29 06:13:40;;;;;;;;;;;9.30;86.00;;;;;;5019616;28;19951;-71
2022/09/29 06:16:07;;;;;;;;;;;9.30;86.10;;;;;;5016057;28;19936;-70
2022/09/29 06:18:35;;;;;;;;;;;9.20;86.20;;;;;;5021476;28;19933;-71
2022/09/29 06:21:02;;;;;;;;;;;9.20;86.30;;;;;;5011168;28;20286;-71
2022/09/29 06:23:29;;;;;;;;;;;9.20;86.30;;;;;;5019442;28;20313;-70
2022/09/29 06:25:56;;;;;;;;;;;9.20;86.30;;;;;;5016617;28;19971;-70
2022/09/29 06:28:23;;;;;;;;;;;9.30;86.30;;;;;;5041183;28;20299;-69
2022/09/29 06:30:50;;;;;;;;;;;9.30;86.30;;;;;;5034395;28;19929;-71
2022/09/29 06:33:16;;;;;;;;;;;9.30;86.20;;;;;;5041145;28;19933;-71
2022/09/29 06:38:31;;;;;;;;;;;9.40;86.10;;;;;;5045747;28;19929;-71
2022/09/29 06:40:57;;;;;;;;;;;9.30;86.20;;;;;;5040891;28;19932;-71
2022/09/29 06:43:24;;;;;;;;;;;9.40;86.20;;;;;;5033827;28;20391;-70
2022/09/29 06:45:51;;;;;;;;;;;9.30;86.20;;;;;;5037316;28;19932;-70
2022/09/29 06:48:17;;;;;;;;;;;9.30;86.20;;;;;;5036207;28;19924;-70
2022/09/29 06:50:44;;;;;;;;;;;9.40;86.30;;;;;;5036452;28;20391;-70
2022/09/29 06:53:13;;;;;;;;;;;9.40;86.20;;;;;;5031871;28;19925;-70
2022/09/29 06:55:40;;;;;;;;;;;9.50;86.00;;;;;;5044845;28;19979;-70
2022/09/29 06:58:07;;;;;;;;;;;9.50;86.00;;;;;;5041498;28;19928;-72
2022/09/29 07:00:34;;;;;;;;;;;9.50;85.80;;;;;;5038843;28;20524;-70
2022/09/29 07:03:03;;;;;;;;;;;9.50;86.00;;;;;;5036676;28;19933;-71
2022/09/29 07:05:30;;;;;;;;;;;9.50;85.90;;;;;;5038804;28;19947;-70
2022/09/29 07:07:57;;;;;;;;;;;9.50;86.00;;;;;;5043001;28;19930;-70
2022/09/29 07:10:25;;;;;;;;;;;9.50;86.00;;;;;;5037030;28;20083;-70
2022/09/29 07:12:52;;;;;;;;;;;9.50;85.90;;;;;;5041294;28;20020;-71
2022/09/29 07:15:19;;;;;;;;;;;9.50;86.00;;;;;;5027707;28;20625;-70
2022/09/29 07:17:45;;;;;;;;;;;9.50;86.00;;;;;;5044279;28;19929;-69
2022/09/29 07:20:12;;;;;;;;;;;9.50;85.90;;;;;;5036622;28;19937;-70
2022/09/29 07:22:39;;;;;;;;;;;9.50;86.00;;;;;;5037558;28;19924;-71
2022/09/29 07:25:06;;;;;;;;;;;9.50;86.10;;;;;;5042792;28;20018;-70
2022/09/29 07:27:34;;;;;;;;;;;9.60;86.00;;;;;;5035852;28;19932;-69
2022/09/29 07:30:01;;;;;;;;;;;9.60;86.00;;;;;;5035042;28;19928;-70
2022/09/29 07:32:31;;;;;;;;;;;9.60;85.90;;;;;;5040454;28;19983;-69
2022/09/29 07:35:00;;;;;;;;;;;9.70;85.80;;;;;;5036761;28;19987;-72
2022/09/29 07:37:29;;;;;;;;;;;9.80;85.80;;;;;;5029213;28;19935;-71
2022/09/29 07:39:56;;;;;;;;;;;9.80;85.70;;;;;;5033675;28;19929;-70
2022/09/29 07:42:22;;;;;;;;;;;9.90;85.60;;;;;;5040212;28;19929;-71
2022/09/29 07:44:56;;;;;;;;;;;9.90;85.40;;;;;;5039610;28;19950;-70
2022/09/29 07:47:23;;;;;;;;;;;9.90;85.40;;;;;;5041301;28;20024;-70
2022/09/29 07:49:49;;;;;;;;;;;9.90;85.20;;;;;;5044706;28;19935;-71
2022/09/29 07:52:16;;;;;;;;;;;10.00;85.50;;;;;;5042141;28;19929;-71
2022/09/29 07:54:43;;;;;;;;;;;10.00;85.60;;;;;;5042851;28;19960;-70
2022/09/29 07:57:10;;;;;;;;;;;10.10;85.40;;;;;;5042956;28;19925;-69
2022/09/29 07:59:36;;;;;;;;;;;10.10;85.30;;;;;;5038550;28;19929;-71
2022/09/29 08:02:04;;;;;;;;;;;10.10;85.30;;;;;;5033070;28;19940;-75
2022/09/29 08:04:31;;;;;;;;;;;10.20;85.00;;;;;;5037280;28;19935;-76
2022/09/29 08:06:58;;;;;;;;;;;10.20;84.90;;;;;;5036579;28;19924;-76
2022/09/29 08:09:25;;;;;;;;;;;10.20;84.70;;;;;;5034703;28;19968;-75
2022/09/29 08:11:51;;;;;;;;;;;10.10;84.60;;;;;;5042403;28;19928;-75
2022/09/29 08:14:21;;;;;;;;;;;10.20;84.80;;;;;;5039098;28;19929;-75
2022/09/29 08:16:48;;;;;;;;;;;10.20;84.80;;;;;;5043801;28;19974;-75
2022/09/29 08:19:16;;;;;;;;;;;10.30;84.70;;;;;;5041868;28;19936;-74
2022/09/29 08:21:42;;;;;;;;;;;10.30;84.50;;;;;;5042696;28;20286;-75
2022/09/29 08:24:09;;;;;;;;;;;10.40;84.20;;;;;;5038712;28;20453;-75
2022/09/29 08:26:37;;;;;;;;;;;10.50;84.60;;;;;;5036914;28;19933;-75
2022/09/29 08:29:04;;;;;;;;;;;10.60;84.10;;;;;;5032113;28;19930;-74
2022/09/29 08:31:31;;;;;;;;;;;10.60;84.70;;;;;;5033997;28;20358;-75
2022/09/29 08:33:58;;;;;;;;;;;10.80;84.20;;;;;;5033157;28;19946;-73
2022/09/29 08:36:26;;;;;;;;;;;10.90;84.00;;;;;;5036649;28;20016;-76
2022/09/29 08:38:54;;;;;;;;;;;11.10;83.70;;;;;;5030279;28;19933;-75
2022/09/29 08:41:32;;;;;;;;;;;11.20;83.60;;;;;;5021539;28;20402;-73
2022/09/29 08:44:01;;;;;;;;;;;11.30;83.50;;;;;;5029501;28;19940;-73
2022/09/29 08:46:31;;;;;;;;;;;11.40;83.80;;;;;;5035367;28;19928;-75
2022/09/29 08:49:00;;;;;;;;;;;11.60;83.60;;;;;;5033584;28;19944;-74
2022/09/29 08:51:30;;;;;;;;;;;11.60;83.50;;;;;;5039443;28;19934;-75
2022/09/29 08:54:00;;;;;;;;;;;11.70;83.50;;;;;;5038738;28;19925;-74
2022/09/29 08:56:27;;;;;;;;;;;11.70;83.20;;;;;;5041057;28;20008;-74
2022/09/29 08:58:54;;;;;;;;;;;11.70;83.20;;;;;;5038667;28;20015;-75
2022/09/29 09:01:23;;;;;;;;;;;11.70;83.00;;;;;;5042801;28;19928;-75
2022/09/29 09:03:58;;;;;;;;;;;11.70;83.10;;;;;;5042317;28;20350;-75
2022/09/29 09:06:30;;;;;;;;;;;11.80;83.00;;;;;;5023149;28;19932;-76
2022/09/29 09:09:07;;;;;;;;;;;11.90;82.80;;;;;;5035985;28;19933;-72
2022/09/29 09:11:41;;;;;;;;;;;11.90;82.90;;;;;;5048630;28;19932;-75
2022/09/29 09:14:16;;;;;;;;;;;12.10;82.90;;;;;;5042286;28;19952;-76
2022/09/29 09:16:48;;;;;;;;;;;12.20;82.40;;;;;;5041305;28;19933;-74
2022/09/29 09:19:33;;;;;;;;;;;12.40;82.20;;;;;;5038354;28;19935;-74
2022/09/29 09:22:06;;;;;;;;;;;12.40;82.30;;;;;;5043059;28;19936;-73
2022/09/29 09:24:36;;;;;;;;;;;12.50;82.30;;;;;;5042428;28;19933;-77
2022/09/29 09:27:03;;;;;;;;;;;12.50;82.00;;;;;;5042545;28;20020;-75
2022/09/29 09:29:34;;;;;;;;;;;12.50;82.00;;;;;;5043372;28;19933;-76
2022/09/29 09:32:03;;;;;;;;;;;12.60;81.90;;;;;;5032558;28;20376;-76
2022/09/29 09:34:35;;;;;;;;;;;12.60;81.80;;;;;;5041927;28;19928;-75
2022/09/29 09:37:04;;;;;;;;;;;12.70;81.50;;;;;;5041892;28;19936;-74
2022/09/29 09:39:33;;;;;;;;;;;12.80;81.30;;;;;;5040955;28;19929;-73
2022/09/29 09:42:01;;;;;;;;;;;12.90;80.90;;;;;;5040251;28;19939;-76
2022/09/29 09:44:33;;;;;;;;;;;12.90;80.80;;;;;;5039676;28;19934;-74
2022/09/29 09:47:03;;;;;;;;;;;13.00;80.70;;;;;;5028951;28;19935;-74
2022/09/29 09:49:32;;;;;;;;;;;13.10;80.20;;;;;;5034981;28;19964;-75
2022/09/29 09:52:02;;;;;;;;;;;13.10;80.10;;;;;;5041055;28;19928;-74
2022/09/29 09:54:33;;;;;;;;;;;13.20;80.20;;;;;;5041489;28;20378;-74
2022/09/29 09:57:11;;;;;;;;;;;13.20;80.20;;;;;;5038513;28;19936;-75
2022/09/29 09:59:41;;;;;;;;;;;13.20;79.80;;;;;;5032357;28;20287;-75
2022/09/29 10:02:15;;;;;;;;;;;13.30;78.90;;;;;;5044564;28;19925;-74
2022/09/29 10:04:42;;;;;;;;;;;13.40;78.90;;;;;;5046476;28;19932;-74
2022/09/29 10:07:10;;;;;;;;;;;13.40;78.30;;;;;;5045273;28;19932;-75
2022/09/29 10:09:38;;;;;;;;;;;13.40;78.60;;;;;;5049167;28;19972;-75
2022/09/29 10:12:10;;;;;;;;;;;13.50;78.50;;;;;;5046529;28;19929;-73
2022/09/29 10:14:38;;;;;;;;;;;13.60;78.30;;;;;;5048567;28;19925;-73
2022/09/29 10:17:09;;;;;;;;;;;13.60;77.90;;;;;;5043985;28;19925;-74
2022/09/29 10:19:54;;;;;;;;;;;13.70;77.80;;;;;;5037612;28;20508;-75
2022/09/29 10:22:21;;;;;;;;;;;13.70;77.20;;;;;;5048197;28;20008;-76
2022/09/29 10:24:54;;;;;;;;;;;13.80;75.70;;;;;;5039232;28;20295;-75
2022/09/29 10:27:21;;;;;;;;;;;13.80;75.20;;;;;;5049318;28;19931;-77
2022/09/29 10:29:49;;;;;;;;;;;13.90;73.30;;;;;;5044476;28;19929;-74
2022/09/29 10:32:21;;;;;;;;;;;14.00;73.60;;;;;;5047264;28;19928;-74
2022/09/29 10:34:50;;;;;;;;;;;14.00;73.90;;;;;;5046877;28;19933;-75
2022/09/29 10:37:22;;;;;;;;;;;14.10;73.80;;;;;;5049072;28;19940;-74
2022/09/29 10:39:51;;;;;;;;;;;14.20;74.10;;;;;;5047133;28;19956;-74
2022/09/29 10:42:26;;;;;;;;;;;14.30;73.40;;;;;;5046605;28;19936;-77
2022/09/29 10:44:53;;;;;;;;;;;14.40;72.80;;;;;;5046320;28;19931;-74
2022/09/29 10:47:22;;;;;;;;;;;14.50;73.40;;;;;;5046068;28;20046;-76
2022/09/29 10:50:03;;;;;;;;;;;14.50;73.20;;;;;;5042553;28;20382;-75
2022/09/29 10:52:30;;;;;;;;;;;14.40;73.70;;;;;;5039716;28;19933;-76
2022/09/29 10:54:59;;;;;;;;;;;14.50;72.90;;;;;;5046631;28;19925;-75
2022/09/29 10:57:30;;;;;;;;;;;14.40;73.10;;;;;;5045854;28;19925;-74
2022/09/29 10:59:57;;;;;;;;;;;14.50;73.60;;;;;;5045624;28;19931;-75
2022/09/29 11:02:29;;;;;;;;;;;14.70;73.70;;;;;;5048454;28;19929;-75
2022/09/29 11:04:58;;;;;;;;;;;14.90;73.80;;;;;;5047132;28;19937;-75
2022/09/29 11:07:25;;;;;;;;;;;14.90;73.70;;;;;;5032452;28;19925;-75
2022/09/29 11:09:53;;;;;;;;;;;15.00;73.80;;;;;;5045722;28;20290;-75
2022/09/29 11:12:27;;;;;;;;;;;15.00;73.80;;;;;;5043762;28;20438;-75
2022/09/29 11:14:54;;;;;;;;;;;15.00;73.80;;;;;;5042451;28;19932;-75
2022/09/29 11:17:22;;;;;;;;;;;14.90;73.90;;;;;;5043197;28;19929;-72
2022/09/29 11:19:49;;;;;;;;;;;14.90;74.10;;;;;;5049535;28;19928;-75
2022/09/29 11:22:24;;;;;;;;;;;15.00;74.10;;;;;;5032884;28;19986;-74
2022/09/29 11:25:01;;;;;;;;;;;15.00;74.00;;;;;;5041474;28;19925;-75
2022/09/29 11:27:38;;;;;;;;;;;15.10;73.80;;;;;;5047970;28;20051;-74
2022/09/29 11:30:06;;;;;;;;;;;15.20;73.90;;;;;;5046787;28;19925;-73
2022/09/29 11:32:44;;;;;;;;;;;15.20;74.10;;;;;;5034019;28;19925;-75
2022/09/29 11:35:18;;;;;;;;;;;15.30;74.10;;;;;;5034480;28;19933;-75
2022/09/29 11:38:12;;;;;;;;;;;15.30;74.10;;;;;;5045042;28;19925;-74
2022/09/29 11:40:47;;;;;;;;;;;15.40;74.10;;;;;;5045810;28;20398;-75
2022/09/29 11:43:27;;;;;;;;;;;15.50;73.70;;;;;;5047542;28;19982;-75
2022/09/29 11:45:59;;;;;;;;;;;15.60;73.40;;;;;;5046683;28;19925;-75
2022/09/29 11:48:34;;;;;;;;;;;15.60;73.40;;;;;;5034414;28;19931;-75
2022/09/29 11:51:05;;;;;;;;;;;15.50;73.70;;;;;;5047914;28;19929;-75
2022/09/29 11:53:40;;;;;;;;;;;15.50;73.70;;;;;;5046847;28;19932;-74
2022/09/29 11:56:16;;;;;;;;;;;15.50;73.60;;;;;;5047955;28;19956;-75
2022/09/29 11:58:50;;;;;;;;;;;15.50;73.00;;;;;;5047135;28;19925;-74
2022/09/29 12:01:29;;;;;;;;;;;15.50;72.70;;;;;;5037049;28;19941;-73
2022/09/29 12:04:04;;;;;;;;;;;15.50;72.10;;;;;;5042855;28;19944;-74
2022/09/29 12:06:40;;;;;;;;;;;15.40;69.80;;;;;;5043751;28;20015;-74
2022/09/29 12:09:13;;;;;;;;;;;15.40;68.90;;;;;;5047012;28;19928;-73
2022/09/29 12:11:45;;;;;;;;;;;15.50;69.60;;;;;;5048524;28;19940;-73
2022/09/29 12:14:15;;;;;;;;;;;15.50;68.30;;;;;;5045057;28;19932;-74
2022/09/29 12:16:48;;;;;;;;;;;15.60;67.40;;;;;;5038207;28;20410;-72
2022/09/29 12:19:17;;;;;;;;;;;15.60;66.90;;;;;;5045722;28;19931;-72
2022/09/29 12:21:46;;;;;;;;;;;15.60;67.20;;;;;;5043541;28;19924;-73
2022/09/29 12:24:16;;;;;;;;;;;15.60;68.70;;;;;;5044322;28;19929;-73
2022/09/29 12:26:44;;;;;;;;;;;15.60;67.20;;;;;;5047030;28;20278;-72
2022/09/29 12:29:26;;;;;;;;;;;15.50;67.00;;;;;;5051963;28;19929;-72
2022/09/29 12:31:56;;;;;;;;;;;15.40;66.50;;;;;;5048881;28;19932;-73
2022/09/29 12:34:26;;;;;;;;;;;15.30;66.40;;;;;;5049652;28;19929;-72
2022/09/29 12:37:01;;;;;;;;;;;15.20;65.80;;;;;;5049926;28;19936;-73
2022/09/29 12:39:32;;;;;;;;;;;15.20;66.30;;;;;;5029822;28;19930;-73
2022/09/29 12:42:04;;;;;;;;;;;15.10;66.20;;;;;;5028609;28;19973;-73
2022/09/29 12:44:36;;;;;;;;;;;15.10;66.80;;;;;;5031103;28;19960;-72
2022/09/29 12:47:09;;;;;;;;;;;15.10;66.50;;;;;;5026090;28;19940;-72
2022/09/29 12:49:38;;;;;;;;;;;15.10;66.70;;;;;;5028235;28;20280;-72
2022/09/29 12:52:09;;;;;;;;;;;15.10;66.30;;;;;;5030458;28;20353;-72
2022/09/29 12:54:39;;;;;;;;;;;15.10;67.00;;;;;;5029394;28;19929;-72
2022/09/29 12:57:09;;;;;;;;;;;15.20;69.30;;;;;;5025778;28;20168;-72
2022/09/29 12:59:37;;;;;;;;;;;15.20;70.00;;;;;;5028572;28;19929;-73
2022/09/29 13:02:18;;;;;;;;;;;15.30;70.70;;;;;;5028793;28;20019;-73
2022/09/29 13:04:57;;;;;;;;;;;15.30;71.10;;;;;;5026506;28;20446;-73
2022/09/29 13:07:48;;;;;;;;;;;15.30;71.30;;;;;;5029005;28;19929;-72
2022/09/29 13:10:21;;;;;;;;;;;15.20;71.40;;;;;;5019253;28;19929;-73
2022/09/29 13:12:56;;;;;;;;;;;15.20;71.20;;;;;;5046454;28;19925;-73
2022/09/29 13:15:30;;;;;;;;;;;15.10;70.70;;;;;;5049540;28;19933;-73
2022/09/29 13:18:06;;;;;;;;;;;15.10;71.10;;;;;;5049267;28;19929;-74
2022/09/29 13:20:51;;;;;;;;;;;15.10;71.10;;;;;;5050189;28;19932;-73
2022/09/29 13:23:28;;;;;;;;;;;15.00;70.30;;;;;;5048422;28;19932;-71
2022/09/29 13:26:01;;;;;;;;;;;14.90;70.70;;;;;;5049452;28;19925;-72
2022/09/29 13:28:30;;;;;;;;;;;14.90;70.30;;;;;;5048015;28;19929;-72
2022/09/29 13:31:01;;;;;;;;;;;14.80;69.90;;;;;;5047725;28;20298;-71
2022/09/29 13:33:35;;;;;;;;;;;14.80;68.70;;;;;;5048847;28;20440;-73
2022/09/29 13:36:02;;;;;;;;;;;14.70;68.90;;;;;;5041489;28;19947;-72
2022/09/29 13:38:30;;;;;;;;;;;14.70;69.90;;;;;;5049226;28;19947;-72
2022/09/29 13:41:11;;;;;;;;;;;14.70;70.40;;;;;;5046876;28;19948;-72
2022/09/29 13:43:38;;;;;;;;;;;14.70;71.80;;;;;;5048666;28;20465;-71
2022/09/29 13:46:20;;;;;;;;;;;14.70;73.10;;;;;;5041343;28;19987;-72
2022/09/29 13:48:51;;;;;;;;;;;14.70;73.60;;;;;;5049033;28;19929;-71
2022/09/29 13:51:51;;;;;;;;;;;14.70;73.70;;;;;;5047294;28;19968;-73
2022/09/29 13:54:25;;;;;;;;;;;14.70;73.90;;;;;;5048546;28;19968;-72
2022/09/29 13:56:58;;;;;;;;;;;14.60;73.50;;;;;;5048814;28;19979;-72
2022/09/29 13:59:27;;;;;;;;;;;14.60;73.10;;;;;;5043489;28;20019;-72
2022/09/29 14:01:54;;;;;;;;;;;14.60;72.70;;;;;;5001256;28;20013;-72
2022/09/29 14:04:33;;;;;;;;;;;14.60;71.50;;;;;;5045652;28;19935;-72
2022/09/29 14:07:03;;;;;;;;;;;14.60;71.10;;;;;;5048058;28;20019;-72
2022/09/29 14:09:32;;;;;;;;;;;14.60;69.50;;;;;;5048983;28;19929;-72
2022/09/29 14:12:01;;;;;;;;;;;14.60;69.20;;;;;;5046007;28;19987;-72
2022/09/29 14:14:30;;;;;;;;;;;14.60;69.70;;;;;;5049427;28;19974;-72
2022/09/29 14:17:03;;;;;;;;;;;14.60;70.20;;;;;;5044600;28;20025;-73
2022/09/29 14:19:37;;;;;;;;;;;14.70;70.20;;;;;;5046812;28;19935;-72
2022/09/29 14:22:05;;;;;;;;;;;14.60;70.10;;;;;;5044945;28;20397;-72
2022/09/29 14:24:42;;;;;;;;;;;14.70;70.30;;;;;;5049596;28;19998;-71
2022/09/29 14:27:21;;;;;;;;;;;14.60;70.30;;;;;;5048752;28;19929;-71
2022/09/29 14:29:50;;;;;;;;;;;14.60;70.00;;;;;;5042250;28;19928;-72
2022/09/29 14:32:18;;;;;;;;;;;14.60;70.20;;;;;;5046526;28;19983;-71
2022/09/29 14:34:47;;;;;;;;;;;14.60;70.40;;;;;;5048712;28;19929;-72
2022/09/29 14:37:16;;;;;;;;;;;14.60;70.60;;;;;;5037473;28;20467;-73
2022/09/29 14:40:26;;;;;;;;;;;14.70;70.70;;;;;;5048799;28;20406;-72
2022/09/29 14:42:30;;;;;;;;;;;14.70;70.80;;;;;;5049545;28;19929;-71